Itaguacu, Brazil
Current Conditions -  °F | °C
As of 3:00 PM on Friday 28 Nov 2014 (Local Time) from SBQV Reporting Station
Few Clouds Few Clouds  
Wind Chill: 88°   Ceiling: Unl
Heat Index: 88°   Visibility: 6mi
Dew Point: 57°   Wind: 8mph
Humidity: 35%   Direction: 360°N
Pressure: 30"   Gusts: NA
Location:  13.6°S, 40.85°W
Report Text: SBQV 281800Z 36007KT 9999 FEW030 31/14 Q1016
Loading
Personal Weather Stations






























Interactive Weather Map New forecast layout! Learn more

10-Day Weather Forecast

Advertisements
Track Severe Weather on mobile